New York, New York
Current Conditions -  °F | °C
As of 9:35 AM on Monday 26 Jan 2015 (Local Time) from KJRB Reporting Station
Overcast Overcast  
Wind Chill: 13°   Ceiling: 1500
Heat Index: 27°   Visibility: 1.2mi
Dew Point: 21°   Wind: 21mph
Humidity: 80%   Direction: 40°NE
Pressure: 30"   Gusts: 26mph
Location:  40.71°N, 74.01°W
Report Text: KJRB 261435Z AUTO 04018G23KT 1 1/4SM OVC015 M03/M06 A3000 RMK AO1
Loading
Personal Weather Stations






























Interactive Weather Map New forecast layout! Learn more

10-Day Weather Forecast

Advertisements
Track Severe Weather on mobile